Lady Nur — 3FFE2 — position and weather

sailwx.info

Track history (hours):
 
Tides and Currents Weather Stations Pressure Air Temp Water Temp Dewpoint Dewpoint Depression Visibility Wind Speed Wind Dir Waves Ship Positions

Lady Nur

Last reported at 2015-Mar-23 14:07 UTC. Time now 2015-Mar-29 23:52 UTC.
Position N 40°59' E 028°60'.

Length 82 m; draft 3 m.

Type: Cargo ship. MMSI: 373237000.

Date/timePositionNaut miles runAvg speedWind from/ knotsBaromVisibWave heightAir tempDewpointWater temp
2015-Mar-23 14:07N 40°59' E 028°60'4 3.7
2015-Mar-23 13:05N 40°56' E 029°02'2 4.3
2015-Mar-23 12:33N 40°55' E 029°04'6 4.4
2015-Mar-23 11:17N 40°52' E 029°11'0 0.0
2015-Mar-23 10:17N 40°52' E 029°11'0 0.0
2015-Mar-23 09:29N 40°52' E 029°11'0 0.0
2015-Mar-23 08:23N 40°52' E 029°11'0 0.0
2015-Mar-23 06:31N 40°52' E 029°11'0 0.0
2015-Mar-23 05:32N 40°52' E 029°11'0 0.0
2015-Mar-23 04:19N 40°52' E 029°11'0 0.0
2015-Mar-23 03:31N 40°52' E 029°11'0 0.0
2015-Mar-23 02:31N 40°52' E 029°11'0 0.0
2015-Mar-23 01:31N 40°52' E 029°11'0 0.0
2015-Mar-23 00:25N 40°52' E 029°11'0 0.0
2015-Mar-22 23:25N 40°52' E 029°11'0 0.0
2015-Mar-22 22:31N 40°52' E 029°11'0 0.0
2015-Mar-22 21:31N 40°52' E 029°11'0 0.0
2015-Mar-22 20:31N 40°52' E 029°11'0 0.0
2015-Mar-22 19:31N 40°52' E 029°11'0 0.0
2015-Mar-22 18:25N 40°52' E 029°11'0 0.0
2015-Mar-22 17:31N 40°52' E 029°11'0 0.0
2015-Mar-22 16:31N 40°52' E 029°11'0 0.0
2015-Mar-22 15:25N 40°52' E 029°11'0 0.0
2015-Mar-22 14:28N 40°52' E 029°11'0 0.0
2015-Mar-22 13:22N 40°52' E 029°11'0 0.0
2015-Mar-22 12:28N 40°52' E 029°11'0 0.0
2015-Mar-22 11:25N 40°52' E 029°11'0 0.0
2015-Mar-22 10:31N 40°52' E 029°11'0 0.0
2015-Mar-22 09:07N 40°52' E 029°11'0 0.1
2015-Mar-22 08:31N 40°52' E 029°11'0 0.0
2015-Mar-22 06:25N 40°52' E 029°11'0 0.1
2015-Mar-22 05:31N 40°52' E 029°11'0 0.0
2015-Mar-22 03:31N 40°52' E 029°11'0 0.0
2015-Mar-22 02:25N 40°52' E 029°11'0 0.1
2015-Mar-22 01:31N 40°52' E 029°11'0 0.0
2015-Mar-22 00:31N 40°52' E 029°11'0 0.0
2015-Mar-21 23:31N 40°52' E 029°11'0 0.0
2015-Mar-21 21:31N 40°52' E 029°11'0 0.0
2015-Mar-21 20:31N 40°52' E 029°11'0 0.0
2015-Mar-21 19:25N 40°52' E 029°11'0 0.0
2015-Mar-21 17:24N 40°52' E 029°11'0 0.0
2015-Mar-21 15:30N 40°52' E 029°11'0 0.0
2015-Mar-21 14:30N 40°52' E 029°11'0 0.0
2015-Mar-21 13:12N 40°52' E 029°11'0 0.0
2015-Mar-21 12:30N 40°52' E 029°11'0 0.0
2015-Mar-21 11:30N 40°52' E 029°11'0 0.0
2015-Mar-21 10:24N 40°52' E 029°11'0 0.0
2015-Mar-21 09:24N 40°52' E 029°11'0 0.0
2015-Mar-21 08:30N 40°52' E 029°11'0 0.0
2015-Mar-21 07:30N 40°52' E 029°11'0 0.0
2015-Mar-21 06:12N 40°52' E 029°11'0 0.0
2015-Mar-21 05:18N 40°52' E 029°11'0 0.0
2015-Mar-21 04:24N 40°52' E 029°11'0 0.0
2015-Mar-21 03:18N 40°52' E 029°11'0 0.1
2015-Mar-21 02:12N 40°52' E 029°11'0 0.0
2015-Mar-21 01:18N 40°52' E 029°11'0 0.0
2015-Mar-21 00:30N 40°52' E 029°11'0 0.0
2015-Mar-20 23:30N 40°52' E 029°11'0 0.0
2015-Mar-20 22:24N 40°52' E 029°11'0 0.0
2015-Mar-20 21:30N 40°52' E 029°11'1 1.2
2015-Mar-20 20:31N 40°51' E 029°11'7 7.2
2015-Mar-20 19:33N 40°45' E 029°17'9 8.4
2015-Mar-20 18:32N 40°45' E 029°28'9 9.1
2015-Mar-20 17:30N 40°45' E 029°40'  
Track history (hours):
 
Tides and Currents Weather Stations Pressure Air Temp Water Temp Dewpoint Dewpoint Depression Visibility Wind Speed Wind Dir Waves Ship Positions

Lady Nur

Last reported at 2015-Mar-23 14:07 UTC. Time now 2015-Mar-29 23:52 UTC.
Position N 40°59' E 028°60'.

Length 82 m; draft 3 m.

Type: Cargo ship. MMSI: 373237000.

Date/timePositionNaut miles runAvg speedWind from/ knotsBaromVisibWave heightAir tempDewpointWater temp
2015-Mar-23 14:07N 40°59' E 028°60'4 3.7
2015-Mar-23 13:05N 40°56' E 029°02'2 4.3
2015-Mar-23 12:33N 40°55' E 029°04'6 4.4
2015-Mar-23 11:17N 40°52' E 029°11'0 0.0
2015-Mar-23 10:17N 40°52' E 029°11'0 0.0
2015-Mar-23 09:29N 40°52' E 029°11'0 0.0
2015-Mar-23 08:23N 40°52' E 029°11'0 0.0
2015-Mar-23 06:31N 40°52' E 029°11'0 0.0
2015-Mar-23 05:32N 40°52' E 029°11'0 0.0
2015-Mar-23 04:19N 40°52' E 029°11'0 0.0
2015-Mar-23 03:31N 40°52' E 029°11'0 0.0
2015-Mar-23 02:31N 40°52' E 029°11'0 0.0
2015-Mar-23 01:31N 40°52' E 029°11'0 0.0
2015-Mar-23 00:25N 40°52' E 029°11'0 0.0
2015-Mar-22 23:25N 40°52' E 029°11'0 0.0
2015-Mar-22 22:31N 40°52' E 029°11'0 0.0
2015-Mar-22 21:31N 40°52' E 029°11'0 0.0
2015-Mar-22 20:31N 40°52' E 029°11'0 0.0
2015-Mar-22 19:31N 40°52' E 029°11'0 0.0
2015-Mar-22 18:25N 40°52' E 029°11'0 0.0
2015-Mar-22 17:31N 40°52' E 029°11'0 0.0
2015-Mar-22 16:31N 40°52' E 029°11'0 0.0
2015-Mar-22 15:25N 40°52' E 029°11'0 0.0
2015-Mar-22 14:28N 40°52' E 029°11'0 0.0
2015-Mar-22 13:22N 40°52' E 029°11'0 0.0
2015-Mar-22 12:28N 40°52' E 029°11'0 0.0
2015-Mar-22 11:25N 40°52' E 029°11'0 0.0
2015-Mar-22 10:31N 40°52' E 029°11'0 0.0
2015-Mar-22 09:07N 40°52' E 029°11'0 0.1
2015-Mar-22 08:31N 40°52' E 029°11'0 0.0
2015-Mar-22 06:25N 40°52' E 029°11'0 0.1
2015-Mar-22 05:31N 40°52' E 029°11'0 0.0
2015-Mar-22 03:31N 40°52' E 029°11'0 0.0
2015-Mar-22 02:25N 40°52' E 029°11'0 0.1
2015-Mar-22 01:31N 40°52' E 029°11'0 0.0
2015-Mar-22 00:31N 40°52' E 029°11'0 0.0
2015-Mar-21 23:31N 40°52' E 029°11'0 0.0
2015-Mar-21 21:31N 40°52' E 029°11'0 0.0
2015-Mar-21 20:31N 40°52' E 029°11'0 0.0
2015-Mar-21 19:25N 40°52' E 029°11'0 0.0
2015-Mar-21 17:24N 40°52' E 029°11'0 0.0
2015-Mar-21 15:30N 40°52' E 029°11'0 0.0
2015-Mar-21 14:30N 40°52' E 029°11'0 0.0
2015-Mar-21 13:12N 40°52' E 029°11'0 0.0
2015-Mar-21 12:30N 40°52' E 029°11'0 0.0
2015-Mar-21 11:30N 40°52' E 029°11'0 0.0
2015-Mar-21 10:24N 40°52' E 029°11'0 0.0
2015-Mar-21 09:24N 40°52' E 029°11'0 0.0
2015-Mar-21 08:30N 40°52' E 029°11'0 0.0
2015-Mar-21 07:30N 40°52' E 029°11'0 0.0
2015-Mar-21 06:12N 40°52' E 029°11'0 0.0
2015-Mar-21 05:18N 40°52' E 029°11'0 0.0
2015-Mar-21 04:24N 40°52' E 029°11'0 0.0
2015-Mar-21 03:18N 40°52' E 029°11'0 0.1
2015-Mar-21 02:12N 40°52' E 029°11'0 0.0
2015-Mar-21 01:18N 40°52' E 029°11'0 0.0
2015-Mar-21 00:30N 40°52' E 029°11'0 0.0
2015-Mar-20 23:30N 40°52' E 029°11'0 0.0
2015-Mar-20 22:24N 40°52' E 029°11'0 0.0
2015-Mar-20 21:30N 40°52' E 029°11'1 1.2
2015-Mar-20 20:31N 40°51' E 029°11'7 7.2
2015-Mar-20 19:33N 40°45' E 029°17'9 8.4
2015-Mar-20 18:32N 40°45' E 029°28'9 9.1
2015-Mar-20 17:30N 40°45' E 029°40'  

Dump ship's entire track history